createdAt,value
2023-02-14T00:03:49.556Z,29.05
2023-02-14T00:06:16.728Z,28.33
2023-02-14T00:08:47.107Z,26.65
2023-02-14T00:11:15.558Z,27.52
2023-02-14T00:14:05.275Z,28.63
2023-02-14T00:16:33.280Z,28.63
2023-02-14T00:19:05.832Z,27.15
2023-02-14T00:21:37.745Z,28.08
2023-02-14T00:24:07.347Z,27.52
2023-02-14T00:26:34.623Z,28.35
2023-02-14T00:29:01.831Z,26.63
2023-02-14T00:31:29.104Z,27.58
2023-02-14T00:33:56.299Z,28.67
2023-02-14T00:36:23.663Z,27.73
2023-02-14T00:38:50.979Z,26.75
2023-02-14T00:41:20.747Z,26.98
2023-02-14T00:43:52.564Z,25.67
2023-02-14T00:46:22.015Z,26.08
2023-02-14T00:48:49.296Z,26.65
2023-02-14T00:51:19.202Z,26.33
2023-02-14T00:53:48.160Z,26.15
2023-02-14T00:56:18.350Z,26.50
2023-02-14T00:58:48.684Z,28.05
2023-02-14T01:01:19.180Z,26.42
2023-02-14T01:03:47.079Z,26.65
2023-02-14T01:06:14.259Z,26.23
2023-02-14T01:08:41.536Z,26.95
2023-02-14T01:11:14.938Z,27.85
2023-02-14T01:13:43.472Z,26.05
2023-02-14T01:16:16.507Z,26.42
2023-02-14T01:18:44.248Z,25.80
2023-02-14T01:21:25.780Z,27.33
2023-02-14T01:23:54.805Z,25.80
2023-02-14T01:26:23.065Z,27.70
2023-02-14T01:28:50.568Z,28.30
2023-02-14T01:31:21.195Z,29.23
2023-02-14T01:33:49.747Z,27.90
2023-02-14T01:36:23.597Z,28.20
2023-02-14T01:38:56.897Z,28.38
2023-02-14T01:41:26.317Z,28.23
2023-02-14T01:44:05.249Z,29.35
2023-02-14T01:49:11.030Z,26.35
2023-02-14T01:51:46.450Z,30.95
2023-02-14T01:54:13.889Z,28.83
2023-02-14T01:56:53.155Z,29.17
2023-02-14T01:59:24.155Z,29.17
2023-02-14T02:01:53.562Z,28.52
2023-02-14T02:04:29.553Z,27.17
2023-02-14T02:07:04.068Z,28.55
2023-02-14T02:09:44.804Z,27.25
2023-02-14T02:12:12.676Z,25.73
2023-02-14T02:14:43.560Z,29.10
2023-02-14T02:17:14.891Z,29.45
2023-02-14T02:20:09.410Z,29.70
2023-02-14T02:23:14.658Z,30.35
2023-02-14T02:26:08.430Z,28.83
2023-02-14T02:29:00.441Z,29.52
2023-02-14T02:31:43.634Z,30.42
2023-02-14T02:34:35.750Z,28.05
2023-02-14T02:37:23.464Z,29.40
2023-02-14T02:40:10.494Z,29.27
2023-02-14T02:42:49.988Z,28.10
2023-02-14T02:46:00.569Z,29.05
2023-02-14T02:48:39.721Z,30.40
2023-02-14T02:51:29.728Z,28.48
2023-02-14T02:54:13.780Z,30.05
2023-02-14T02:56:56.135Z,30.58
2023-02-14T02:59:38.103Z,28.38
2023-02-14T03:02:15.093Z,28.67
2023-02-14T03:04:54.490Z,27.90
2023-02-14T03:07:40.506Z,29.00
2023-02-14T03:10:24.021Z,28.92
2023-02-14T03:13:10.325Z,27.35
2023-02-14T03:16:07.868Z,27.92
2023-02-14T03:19:29.341Z,27.73
2023-02-14T03:22:03.704Z,26.05
2023-02-14T03:25:09.216Z,28.35
2023-02-14T03:27:43.833Z,27.48
2023-02-14T03:30:33.684Z,29.35
2023-02-14T03:33:10.963Z,28.35
2023-02-14T03:36:02.292Z,28.35
2023-02-14T03:39:15.494Z,27.67
2023-02-14T03:41:50.950Z,28.17
2023-02-14T03:44:22.819Z,27.23
2023-02-14T03:46:54.565Z,26.27
2023-02-14T03:49:39.384Z,26.25
2023-02-14T03:52:09.870Z,28.40
2023-02-14T03:54:39.526Z,27.90
2023-02-14T03:57:38.644Z,29.45
2023-02-14T04:00:06.919Z,27.65
2023-02-14T04:02:46.737Z,34.88
2023-02-14T04:05:19.594Z,33.25
2023-02-14T04:07:50.311Z,33.33
2023-02-14T04:10:18.741Z,33.78
2023-02-14T04:12:46.003Z,34.22
2023-02-14T04:15:13.966Z,36.75
2023-02-14T04:18:07.670Z,33.78
2023-02-14T04:20:35.015Z,35.90
2023-02-14T04:23:03.540Z,35.97
2023-02-14T04:25:31.198Z,36.47
2023-02-14T04:27:58.409Z,33.63
2023-02-14T04:30:25.840Z,30.95
2023-02-14T04:32:52.998Z,31.75
2023-02-14T04:35:20.143Z,33.03
2023-02-14T04:37:47.437Z,33.83
2023-02-14T04:40:17.391Z,31.17
2023-02-14T04:42:45.833Z,34.60
2023-02-14T04:45:13.356Z,33.83
2023-02-14T04:47:40.718Z,35.28
2023-02-14T04:50:08.391Z,33.05
2023-02-14T04:52:35.549Z,32.87
2023-02-14T04:55:04.546Z,32.25
2023-02-14T04:57:31.952Z,31.50
2023-02-14T04:59:59.137Z,31.23
2023-02-14T05:02:26.685Z,29.98
2023-02-14T05:04:53.884Z,27.90
2023-02-14T05:07:21.098Z,25.65
2023-02-14T05:09:48.348Z,24.88
2023-02-14T05:12:17.012Z,25.85
2023-02-14T05:17:11.016Z,27.58
2023-02-14T05:19:38.090Z,26.83
2023-02-14T05:22:05.210Z,27.67
2023-02-14T05:24:33.504Z,26.88
2023-02-14T05:27:00.747Z,28.42
2023-02-14T05:29:28.036Z,28.88
2023-02-14T05:31:55.272Z,28.23
2023-02-14T05:34:22.443Z,28.38
2023-02-14T05:36:49.454Z,27.83
2023-02-14T05:39:16.488Z,28.23
2023-02-14T05:41:43.509Z,28.08
2023-02-14T05:44:10.691Z,29.13
2023-02-14T05:46:37.805Z,29.48
2023-02-14T05:49:04.860Z,28.45
2023-02-14T05:51:32.080Z,29.08
2023-02-14T05:54:01.230Z,31.20
2023-02-14T05:56:28.460Z,28.90
2023-02-14T05:58:55.672Z,29.35
2023-02-14T06:01:26.053Z,27.77
2023-02-14T06:03:53.321Z,27.73
2023-02-14T06:06:20.736Z,29.23
2023-02-14T06:08:47.826Z,27.42
2023-02-14T06:11:15.353Z,26.73
2023-02-14T06:13:42.450Z,25.52
2023-02-14T06:16:09.571Z,26.50
2023-02-14T06:18:37.634Z,27.17
2023-02-14T06:21:04.906Z,30.13
2023-02-14T06:23:32.103Z,26.80
2023-02-14T06:25:59.304Z,27.05
2023-02-14T06:28:26.646Z,26.40
2023-02-14T06:30:53.892Z,26.83
2023-02-14T06:33:21.085Z,27.30
2023-02-14T06:35:48.229Z,26.63
2023-02-14T06:38:15.387Z,27.92
2023-02-14T06:40:42.439Z,27.05
2023-02-14T06:43:09.576Z,28.13
2023-02-14T06:45:36.661Z,27.10
2023-02-14T06:48:04.299Z,25.13
2023-02-14T06:50:31.370Z,25.60
2023-02-14T06:52:58.520Z,26.05
2023-02-14T06:55:25.784Z,26.38
2023-02-14T06:57:52.920Z,25.38
2023-02-14T07:00:20.605Z,24.13
2023-02-14T07:02:47.947Z,24.10
2023-02-14T07:05:19.013Z,24.33
2023-02-14T07:07:46.672Z,23.02
2023-02-14T07:10:14.382Z,23.98
2023-02-14T07:12:41.696Z,24.40
2023-02-14T07:15:10.875Z,22.15
2023-02-14T07:17:38.508Z,23.67
2023-02-14T07:20:07.351Z,24.10
2023-02-14T07:22:34.836Z,23.65
2023-02-14T07:25:02.273Z,20.17
2023-02-14T07:27:29.271Z,21.60
2023-02-14T07:29:56.455Z,21.65
2023-02-14T07:32:23.664Z,22.65
2023-02-14T07:34:51.366Z,19.83
2023-02-14T07:37:19.194Z,19.90
2023-02-14T07:39:46.506Z,22.98
2023-02-14T07:42:13.646Z,24.17
2023-02-14T07:44:46.331Z,24.15
2023-02-14T07:47:13.475Z,24.17
2023-02-14T07:49:40.659Z,23.33
2023-02-14T07:52:07.665Z,24.48
2023-02-14T07:54:34.892Z,23.38
2023-02-14T07:57:01.997Z,24.27
2023-02-14T07:59:29.042Z,23.23
2023-02-14T08:01:56.414Z,22.80
2023-02-14T08:04:26.283Z,24.10
2023-02-14T08:06:57.179Z,23.92
2023-02-14T08:09:27.032Z,25.50
2023-02-14T08:12:14.653Z,25.13
2023-02-14T08:14:43.087Z,24.58
2023-02-14T08:17:13.414Z,26.35
2023-02-14T08:19:41.051Z,25.83
2023-02-14T08:22:08.376Z,24.35
2023-02-14T08:24:35.384Z,24.05
2023-02-14T08:27:02.511Z,23.90
2023-02-14T08:29:29.725Z,22.55
2023-02-14T08:32:00.327Z,23.42
2023-02-14T08:34:27.524Z,23.50
2023-02-14T08:36:55.544Z,24.52
2023-02-14T08:39:22.698Z,25.40
2023-02-14T08:41:49.740Z,26.25
2023-02-14T08:44:16.876Z,25.63
2023-02-14T08:46:43.945Z,24.92
2023-02-14T08:49:11.266Z,27.02
2023-02-14T08:51:38.341Z,26.88
2023-02-14T08:54:05.422Z,26.15
2023-02-14T08:56:33.316Z,26.13
2023-02-14T08:59:00.491Z,26.30
2023-02-14T09:01:29.219Z,25.52
2023-02-14T09:03:56.919Z,27.10
2023-02-14T09:06:24.616Z,27.43
2023-02-14T09:08:53.643Z,27.70
2023-02-14T09:11:23.101Z,28.83
2023-02-14T09:13:53.237Z,28.65
2023-02-14T09:16:22.777Z,29.00
2023-02-14T09:18:50.730Z,27.38
2023-02-14T09:21:21.204Z,28.52
2023-02-14T09:23:48.350Z,27.33
2023-02-14T09:26:16.716Z,26.17
2023-02-14T09:28:44.470Z,24.67
2023-02-14T09:31:20.156Z,24.30
2023-02-14T09:34:07.211Z,23.90
2023-02-14T09:36:34.356Z,24.15
2023-02-14T09:39:01.482Z,23.17
2023-02-14T09:41:31.483Z,24.17
2023-02-14T09:44:04.156Z,24.58
2023-02-14T09:46:40.451Z,22.80
2023-02-14T09:49:13.621Z,23.67
2023-02-14T09:51:46.081Z,25.13
2023-02-14T09:54:19.002Z,24.10
2023-02-14T09:56:55.918Z,30.10
2023-02-14T09:59:36.154Z,23.95
2023-02-14T10:02:27.218Z,22.20
2023-02-14T10:05:15.374Z,20.27
2023-02-14T10:08:08.389Z,20.05
2023-02-14T10:10:41.839Z,21.08
2023-02-14T10:13:20.940Z,20.90
2023-02-14T10:16:02.527Z,21.13
2023-02-14T10:18:48.962Z,19.55
2023-02-14T10:21:38.407Z,19.73
2023-02-14T10:24:23.193Z,18.35
2023-02-14T10:26:53.039Z,18.38
2023-02-14T10:29:21.071Z,18.92
2023-02-14T10:31:56.029Z,18.48
2023-02-14T10:34:45.868Z,19.67
2023-02-14T10:37:37.283Z,16.60
2023-02-14T10:40:17.499Z,16.05
2023-02-14T10:42:54.138Z,16.23
2023-02-14T10:45:51.908Z,15.25
2023-02-14T10:48:44.220Z,15.40
2023-02-14T10:51:23.421Z,16.48
2023-02-14T10:54:16.264Z,20.63
2023-02-14T10:57:03.451Z,20.13
2023-02-14T10:59:58.013Z,19.35
2023-02-14T11:02:31.790Z,18.55
2023-02-14T11:05:00.803Z,18.88
2023-02-14T11:07:28.068Z,16.55
2023-02-14T11:09:56.705Z,18.23
2023-02-14T11:15:14.920Z,22.17
2023-02-14T11:17:42.900Z,21.45
2023-02-14T11:20:24.559Z,21.27
2023-02-14T11:22:51.694Z,18.98
2023-02-14T11:25:21.816Z,18.52
2023-02-14T11:27:55.975Z,17.63
2023-02-14T11:30:33.772Z,17.60
2023-02-14T11:33:01.318Z,15.95
2023-02-14T11:35:37.182Z,14.45
2023-02-14T11:38:07.465Z,15.05
2023-02-14T11:40:37.927Z,14.93
2023-02-14T11:43:14.317Z,14.60
2023-02-14T11:45:47.419Z,13.02
2023-02-14T11:48:41.959Z,11.95
2023-02-14T11:51:15.145Z,12.02
2023-02-14T11:53:46.754Z,10.40
2023-02-14T11:56:15.653Z,10.90
2023-02-14T11:59:04.587Z,11.27
2023-02-14T12:01:36.949Z,11.73
2023-02-14T12:04:08.284Z,12.20
2023-02-14T12:06:36.879Z,10.65
2023-02-14T12:12:23.798Z,12.00
2023-02-14T12:14:50.968Z,12.40
2023-02-14T12:17:31.139Z,11.82
2023-02-14T12:20:10.202Z,12.07
2023-02-14T12:22:46.693Z,12.85
2023-02-14T12:25:22.898Z,12.32
2023-02-14T12:28:01.450Z,12.85
2023-02-14T12:30:33.757Z,11.98
2023-02-14T12:33:01.471Z,12.80
2023-02-14T12:35:43.976Z,12.13
2023-02-14T12:38:17.168Z,10.88
2023-02-14T12:41:05.316Z,8.90
2023-02-14T12:43:35.395Z,7.80
2023-02-14T12:46:37.538Z,5.95
2023-02-14T12:49:31.680Z,5.70
2023-02-14T12:52:13.734Z,5.53
2023-02-14T12:55:07.836Z,4.57
2023-02-14T12:57:37.983Z,4.57
2023-02-14T13:00:15.370Z,4.95
2023-02-14T13:03:15.655Z,5.22
2023-02-14T13:06:14.005Z,5.00
2023-02-14T13:08:54.212Z,6.30
2023-02-14T13:11:40.436Z,5.20
2023-02-14T13:14:16.459Z,4.50
2023-02-14T13:17:03.612Z,4.15
2023-02-14T13:19:45.619Z,3.70
2023-02-14T13:22:18.118Z,3.70
2023-02-14T13:24:57.852Z,4.20
2023-02-14T13:27:28.806Z,5.57
2023-02-14T13:30:04.890Z,5.75
2023-02-14T13:32:39.034Z,6.15
2023-02-14T13:35:07.823Z,6.22
2023-02-14T13:37:36.652Z,6.70
2023-02-14T13:40:16.064Z,6.43
2023-02-14T13:42:49.902Z,7.63
2023-02-14T13:45:32.207Z,9.18
2023-02-14T13:48:19.772Z,8.82
2023-02-14T13:50:51.850Z,9.38
2023-02-14T13:53:42.089Z,9.02
2023-02-14T13:56:12.053Z,9.20
2023-02-14T13:59:05.521Z,8.43
2023-02-14T14:01:48.127Z,8.98
2023-02-14T14:04:31.902Z,8.77
2023-02-14T14:07:30.882Z,7.65
2023-02-14T14:10:00.496Z,6.97
2023-02-14T14:12:27.547Z,7.53
2023-02-14T14:15:06.969Z,7.40
2023-02-14T14:18:06.893Z,7.10
2023-02-14T14:20:46.454Z,8.52
2023-02-14T14:23:32.422Z,7.57
2023-02-14T14:26:00.954Z,6.40
2023-02-14T14:28:32.056Z,6.28
2023-02-14T14:30:59.514Z,4.32
2023-02-14T14:33:33.524Z,5.20
2023-02-14T14:36:08.249Z,5.75
2023-02-14T14:38:47.447Z,5.78
2023-02-14T14:41:14.516Z,5.38
2023-02-14T14:43:42.180Z,5.00
2023-02-14T14:46:13.258Z,6.00
2023-02-14T14:48:51.566Z,5.72
2023-02-14T14:51:32.264Z,5.03
2023-02-14T14:54:03.450Z,5.05
2023-02-14T14:56:32.473Z,4.80
2023-02-14T14:59:18.140Z,4.28
2023-02-14T15:01:46.173Z,4.25
2023-02-14T15:04:19.620Z,5.05
2023-02-14T15:06:47.596Z,5.20
2023-02-14T15:09:23.017Z,5.88
2023-02-14T15:12:10.848Z,5.53
2023-02-14T15:14:42.890Z,5.20
2023-02-14T15:17:21.003Z,4.72
2023-02-14T15:19:51.673Z,6.15
2023-02-14T15:22:29.718Z,5.43
2023-02-14T15:24:58.676Z,5.13
2023-02-14T15:27:28.534Z,5.88
2023-02-14T15:30:01.347Z,6.38
2023-02-14T15:32:32.579Z,6.43
2023-02-14T15:35:03.716Z,6.50
2023-02-14T15:37:32.412Z,6.28
2023-02-14T15:39:59.987Z,6.85
2023-02-14T15:42:33.363Z,7.53
2023-02-14T15:45:26.125Z,7.57
2023-02-14T15:47:57.524Z,7.88
2023-02-14T15:50:27.965Z,7.93
2023-02-14T15:53:00.045Z,7.15
2023-02-14T15:55:27.875Z,6.53
2023-02-14T15:58:01.745Z,6.38
2023-02-14T16:00:29.222Z,6.70
2023-02-14T16:03:08.583Z,6.45
2023-02-14T16:05:35.550Z,8.88
2023-02-14T16:08:06.429Z,7.45
2023-02-14T16:10:34.486Z,8.88
2023-02-14T16:13:03.491Z,8.50
2023-02-14T16:15:33.569Z,8.18
2023-02-14T16:18:06.948Z,7.97
2023-02-14T16:20:43.345Z,8.25
2023-02-14T16:23:26.650Z,6.75
2023-02-14T16:25:57.278Z,7.63
2023-02-14T16:28:28.468Z,7.40
2023-02-14T16:30:57.753Z,6.88
2023-02-14T16:33:30.912Z,7.35
2023-02-14T16:36:22.882Z,7.65
2023-02-14T16:38:50.884Z,7.60
2023-02-14T16:41:23.174Z,6.40
2023-02-14T16:43:50.624Z,8.13
2023-02-14T16:46:37.409Z,8.80
2023-02-14T16:49:04.452Z,8.32
2023-02-14T16:51:34.255Z,9.20
2023-02-14T16:54:05.423Z,8.95
2023-02-14T16:56:48.678Z,8.77
2023-02-14T16:59:15.732Z,9.70
2023-02-14T17:01:42.959Z,8.90
2023-02-14T17:04:10.232Z,8.70
2023-02-14T17:06:39.888Z,8.90
2023-02-14T17:09:11.802Z,9.40
2023-02-14T17:11:43.471Z,8.73
2023-02-14T17:14:14.910Z,8.82
2023-02-14T17:16:42.620Z,8.52
2023-02-14T17:19:10.422Z,7.93
2023-02-14T17:21:38.312Z,8.68
2023-02-14T17:24:05.406Z,8.52
2023-02-14T17:26:33.905Z,8.73
2023-02-14T17:29:00.989Z,8.70
2023-02-14T17:31:29.089Z,9.65
2023-02-14T17:33:56.157Z,9.95
2023-02-14T17:36:24.217Z,9.18
2023-02-14T17:38:53.790Z,9.90
2023-02-14T17:41:23.334Z,9.13
2023-02-14T17:43:53.165Z,10.57
2023-02-14T17:46:22.320Z,10.07
2023-02-14T17:48:49.657Z,11.23
2023-02-14T17:51:18.150Z,11.82
2023-02-14T17:56:20.233Z,15.88
2023-02-14T17:58:48.944Z,14.25
2023-02-14T18:01:18.772Z,14.98
2023-02-14T18:03:45.865Z,16.45
2023-02-14T18:06:14.458Z,20.75
2023-02-14T18:08:46.270Z,23.55
2023-02-14T18:11:14.198Z,25.88
2023-02-14T18:13:41.638Z,33.17
2023-02-14T18:16:12.181Z,26.88
2023-02-14T18:18:39.872Z,24.05
2023-02-14T18:21:10.333Z,21.57
2023-02-14T18:23:38.165Z,20.40
2023-02-14T18:26:10.137Z,22.25
2023-02-14T18:28:37.203Z,31.23
2023-02-14T18:31:13.407Z,31.75
2023-02-14T18:33:40.718Z,35.75
2023-02-14T18:36:13.566Z,36.88
2023-02-14T18:38:42.070Z,35.30
2023-02-14T18:43:37.789Z,28.50
2023-02-14T18:46:06.949Z,24.23
2023-02-14T18:48:34.577Z,24.38
2023-02-14T18:51:13.223Z,26.13
2023-02-14T18:53:41.244Z,25.83
2023-02-14T18:56:14.088Z,29.10
2023-02-14T18:58:43.829Z,27.48
2023-02-14T19:01:23.514Z,27.85
2023-02-14T19:03:52.928Z,26.45
2023-02-14T19:06:20.869Z,24.25
2023-02-14T19:08:51.353Z,25.58
2023-02-14T19:11:24.301Z,24.92
2023-02-14T19:13:56.575Z,22.65
2023-02-14T19:16:26.390Z,23.23
2023-02-14T19:18:54.146Z,23.75
2023-02-14T19:21:27.421Z,22.25
2023-02-14T19:23:58.718Z,23.42
2023-02-14T19:26:37.238Z,23.05
2023-02-14T19:31:37.540Z,23.85
2023-02-14T19:34:06.602Z,23.30
2023-02-14T19:36:36.395Z,22.17
2023-02-14T19:39:04.036Z,21.40
2023-02-14T19:41:34.635Z,22.33
2023-02-14T19:44:04.919Z,22.23
2023-02-14T19:46:32.846Z,22.13
2023-02-14T19:49:00.831Z,23.00
2023-02-14T19:51:30.826Z,25.10
2023-02-14T19:53:59.575Z,27.83
2023-02-14T19:56:30.078Z,32.67
2023-02-14T19:58:57.632Z,37.00
2023-02-14T20:01:33.527Z,39.67
2023-02-14T20:04:01.211Z,36.60
2023-02-14T20:06:32.002Z,32.53
2023-02-14T20:08:59.107Z,29.73
2023-02-14T20:11:52.334Z,25.77
2023-02-14T20:14:36.037Z,24.25
2023-02-14T20:17:07.995Z,22.70
2023-02-14T20:19:37.078Z,20.10
2023-02-14T20:22:05.504Z,20.80
2023-02-14T20:24:32.783Z,20.30
2023-02-14T20:27:00.621Z,19.23
2023-02-14T20:29:27.901Z,17.60
2023-02-14T20:32:01.529Z,17.33
2023-02-14T20:34:28.847Z,18.63
2023-02-14T20:36:56.225Z,19.17
2023-02-14T20:39:29.119Z,19.42
2023-02-14T20:41:56.740Z,20.83
2023-02-14T20:44:24.103Z,20.65
2023-02-14T20:46:53.778Z,20.92
2023-02-14T20:49:22.518Z,20.20
2023-02-14T20:51:50.975Z,20.98
2023-02-14T20:54:19.901Z,20.65
2023-02-14T20:56:48.087Z,19.75
2023-02-14T20:59:15.308Z,21.80
2023-02-14T21:01:42.646Z,22.80
2023-02-14T21:04:10.072Z,22.17
2023-02-14T21:06:39.970Z,19.95
2023-02-14T21:09:07.448Z,19.90
2023-02-14T21:11:34.736Z,18.58
2023-02-14T21:14:02.271Z,21.67
2023-02-14T21:16:30.423Z,20.38
2023-02-14T21:18:59.514Z,19.80
2023-02-14T21:21:32.331Z,22.20
2023-02-14T21:24:01.490Z,22.08
2023-02-14T21:26:29.491Z,19.60
2023-02-14T21:28:56.770Z,20.15
2023-02-14T21:31:25.673Z,18.67
2023-02-14T21:33:58.001Z,19.15
2023-02-14T21:36:27.782Z,19.08
2023-02-14T21:38:58.302Z,20.10
2023-02-14T21:41:27.726Z,19.33
2023-02-14T21:43:56.525Z,19.83
2023-02-14T21:46:31.226Z,19.35
2023-02-14T21:49:19.271Z,19.58
2023-02-14T21:51:47.863Z,18.80
2023-02-14T21:56:43.212Z,21.48
2023-02-14T21:59:10.453Z,20.27
2023-02-14T22:01:40.242Z,19.95
2023-02-14T22:04:09.418Z,18.83
2023-02-14T22:06:38.644Z,20.13
2023-02-14T22:09:06.468Z,20.10
2023-02-14T22:11:34.068Z,19.73
2023-02-14T22:14:01.483Z,19.80
2023-02-14T22:16:28.890Z,19.48
2023-02-14T22:18:56.262Z,20.75
2023-02-14T22:21:25.598Z,22.50
2023-02-14T22:23:53.335Z,22.27
2023-02-14T22:26:26.724Z,22.30
2023-02-14T22:28:59.438Z,21.75
2023-02-14T22:31:29.220Z,23.05
2023-02-14T22:33:56.898Z,22.15
2023-02-14T22:36:24.347Z,20.05
2023-02-14T22:38:51.608Z,20.38
2023-02-14T22:41:21.638Z,21.75
2023-02-14T22:43:49.049Z,19.42
2023-02-14T22:46:17.769Z,21.63
2023-02-14T22:51:22.325Z,21.90
2023-02-14T22:53:51.023Z,20.63
2023-02-14T22:58:47.433Z,22.10
2023-02-14T23:01:20.086Z,22.52
2023-02-14T23:03:48.287Z,24.88
2023-02-14T23:06:16.168Z,25.00
2023-02-14T23:08:46.117Z,23.55
2023-02-14T23:11:34.621Z,23.92
2023-02-14T23:17:25.466Z,25.70
2023-02-14T23:20:11.245Z,26.58
2023-02-14T23:22:41.392Z,24.58
2023-02-14T23:25:11.245Z,25.52
2023-02-14T23:27:45.502Z,27.58
2023-02-14T23:30:16.839Z,26.42
2023-02-14T23:32:44.582Z,25.25
2023-02-14T23:35:11.771Z,27.58
2023-02-14T23:37:38.999Z,26.98
2023-02-14T23:40:07.389Z,29.25
2023-02-14T23:42:34.541Z,25.40
2023-02-14T23:45:21.924Z,26.42
2023-02-14T23:47:49.083Z,26.27
2023-02-14T23:50:16.308Z,27.33
2023-02-14T23:52:45.806Z,25.73
2023-02-14T23:55:13.338Z,27.20
2023-02-14T23:57:40.676Z,27.10
